sensor_id;sensor_type;location;lat;lon;timestamp;temperature;humidity
76787;DHT22;65739;51.482;5.702;2023-04-24T00:02:13;9.70;99.90
76787;DHT22;65739;51.482;5.702;2023-04-24T00:04:38;9.70;99.90
76787;DHT22;65739;51.482;5.702;2023-04-24T00:07:10;9.70;99.90
76787;DHT22;65739;51.482;5.702;2023-04-24T00:09:35;9.70;99.90
76787;DHT22;65739;51.482;5.702;2023-04-24T00:12:01;9.70;99.90
76787;DHT22;65739;51.482;5.702;2023-04-24T00:14:30;9.70;99.90
76787;DHT22;65739;51.482;5.702;2023-04-24T00:16:55;9.70;99.90
76787;DHT22;65739;51.482;5.702;2023-04-24T00:19:21;9.70;99.90
76787;DHT22;65739;51.482;5.702;2023-04-24T00:21:46;9.70;99.90
76787;DHT22;65739;51.482;5.702;2023-04-24T00:24:16;9.60;99.90
76787;DHT22;65739;51.482;5.702;2023-04-24T00:26:41;9.60;99.90
76787;DHT22;65739;51.482;5.702;2023-04-24T00:29:07;9.70;99.90
76787;DHT22;65739;51.482;5.702;2023-04-24T00:31:32;9.60;99.90
76787;DHT22;65739;51.482;5.702;2023-04-24T00:34:03;9.60;99.90
76787;DHT22;65739;51.482;5.702;2023-04-24T00:36:29;9.60;99.90
76787;DHT22;65739;51.482;5.702;2023-04-24T00:38:56;9.50;99.90
76787;DHT22;65739;51.482;5.702;2023-04-24T00:41:21;9.50;99.90
76787;DHT22;65739;51.482;5.702;2023-04-24T00:43:47;9.60;99.90
76787;DHT22;65739;51.482;5.702;2023-04-24T00:46:13;9.60;99.90
76787;DHT22;65739;51.482;5.702;2023-04-24T00:48:39;9.50;99.90
76787;DHT22;65739;51.482;5.702;2023-04-24T00:51:05;9.50;99.90
76787;DHT22;65739;51.482;5.702;2023-04-24T00:53:31;9.50;99.90
76787;DHT22;65739;51.482;5.702;2023-04-24T00:55:56;9.50;99.90
76787;DHT22;65739;51.482;5.702;2023-04-24T00:58:23;9.50;99.90
76787;DHT22;65739;51.482;5.702;2023-04-24T01:00:49;9.50;99.90
76787;DHT22;65739;51.482;5.702;2023-04-24T01:03:19;9.40;99.90
76787;DHT22;65739;51.482;5.702;2023-04-24T01:05:45;9.40;99.90
76787;DHT22;65739;51.482;5.702;2023-04-24T01:08:11;9.40;99.90
76787;DHT22;65739;51.482;5.702;2023-04-24T01:10:38;9.30;99.90
76787;DHT22;65739;51.482;5.702;2023-04-24T01:13:05;9.30;99.90
76787;DHT22;65739;51.482;5.702;2023-04-24T01:15:32;9.30;99.90
76787;DHT22;65739;51.482;5.702;2023-04-24T01:17:58;9.30;99.90
76787;DHT22;65739;51.482;5.702;2023-04-24T01:20:24;9.30;99.90
76787;DHT22;65739;51.482;5.702;2023-04-24T01:22:51;9.30;99.90
76787;DHT22;65739;51.482;5.702;2023-04-24T01:25:17;9.30;99.90
76787;DHT22;65739;51.482;5.702;2023-04-24T01:27:43;9.30;99.90
76787;DHT22;65739;51.482;5.702;2023-04-24T01:30:09;9.30;99.90
76787;DHT22;65739;51.482;5.702;2023-04-24T01:32:36;9.30;99.90
76787;DHT22;65739;51.482;5.702;2023-04-24T01:35:02;9.30;99.90
76787;DHT22;65739;51.482;5.702;2023-04-24T01:37:28;9.30;99.90
76787;DHT22;65739;51.482;5.702;2023-04-24T01:39:53;9.20;99.90
76787;DHT22;65739;51.482;5.702;2023-04-24T01:42:19;9.20;99.90
76787;DHT22;65739;51.482;5.702;2023-04-24T01:44:45;9.20;99.90
76787;DHT22;65739;51.482;5.702;2023-04-24T01:47:10;9.20;99.90
76787;DHT22;65739;51.482;5.702;2023-04-24T01:49:38;9.20;99.90
76787;DHT22;65739;51.482;5.702;2023-04-24T01:52:04;9.30;99.90
76787;DHT22;65739;51.482;5.702;2023-04-24T01:54:30;9.30;99.90
76787;DHT22;65739;51.482;5.702;2023-04-24T01:56:55;9.20;99.90
76787;DHT22;65739;51.482;5.702;2023-04-24T01:59:21;9.30;99.90
76787;DHT22;65739;51.482;5.702;2023-04-24T02:01:48;9.20;99.90
76787;DHT22;65739;51.482;5.702;2023-04-24T02:04:14;9.30;99.90
76787;DHT22;65739;51.482;5.702;2023-04-24T02:06:40;9.30;99.90
76787;DHT22;65739;51.482;5.702;2023-04-24T02:09:06;9.30;99.90
76787;DHT22;65739;51.482;5.702;2023-04-24T02:11:31;9.30;99.90
76787;DHT22;65739;51.482;5.702;2023-04-24T02:13:57;9.30;99.90
76787;DHT22;65739;51.482;5.702;2023-04-24T02:16:23;9.30;99.90
76787;DHT22;65739;51.482;5.702;2023-04-24T02:18:48;9.30;99.90
76787;DHT22;65739;51.482;5.702;2023-04-24T02:21:14;9.30;99.90
76787;DHT22;65739;51.482;5.702;2023-04-24T02:23:39;9.30;99.90
76787;DHT22;65739;51.482;5.702;2023-04-24T02:26:05;9.30;99.90
76787;DHT22;65739;51.482;5.702;2023-04-24T02:28:31;9.20;99.90
76787;DHT22;65739;51.482;5.702;2023-04-24T02:30:56;9.30;99.90
76787;DHT22;65739;51.482;5.702;2023-04-24T02:33:22;9.30;99.90
76787;DHT22;65739;51.482;5.702;2023-04-24T02:35:47;9.30;99.90
76787;DHT22;65739;51.482;5.702;2023-04-24T02:38:13;9.20;99.90
76787;DHT22;65739;51.482;5.702;2023-04-24T02:40:38;9.20;99.90
76787;DHT22;65739;51.482;5.702;2023-04-24T02:43:04;9.20;99.90
76787;DHT22;65739;51.482;5.702;2023-04-24T02:45:30;9.30;99.90
76787;DHT22;65739;51.482;5.702;2023-04-24T02:47:55;9.30;99.90
76787;DHT22;65739;51.482;5.702;2023-04-24T02:50:21;9.30;99.90
76787;DHT22;65739;51.482;5.702;2023-04-24T02:52:46;9.30;99.90
76787;DHT22;65739;51.482;5.702;2023-04-24T02:55:12;9.30;99.90
76787;DHT22;65739;51.482;5.702;2023-04-24T02:57:38;9.30;99.90
76787;DHT22;65739;51.482;5.702;2023-04-24T03:00:04;9.30;99.90
76787;DHT22;65739;51.482;5.702;2023-04-24T03:02:32;9.30;99.90
76787;DHT22;65739;51.482;5.702;2023-04-24T03:04:57;9.30;99.90
76787;DHT22;65739;51.482;5.702;2023-04-24T03:07:23;9.30;99.90
76787;DHT22;65739;51.482;5.702;2023-04-24T03:09:49;9.30;99.90
76787;DHT22;65739;51.482;5.702;2023-04-24T03:12:16;9.20;99.90
76787;DHT22;65739;51.482;5.702;2023-04-24T03:14:43;9.30;99.90
76787;DHT22;65739;51.482;5.702;2023-04-24T03:17:09;9.30;99.90
76787;DHT22;65739;51.482;5.702;2023-04-24T03:19:34;9.30;99.90
76787;DHT22;65739;51.482;5.702;2023-04-24T03:22:02;9.30;99.90
76787;DHT22;65739;51.482;5.702;2023-04-24T03:24:28;9.30;99.90
76787;DHT22;65739;51.482;5.702;2023-04-24T03:26:53;9.30;99.90
76787;DHT22;65739;51.482;5.702;2023-04-24T03:29:19;9.30;99.90
76787;DHT22;65739;51.482;5.702;2023-04-24T03:31:45;9.30;99.90
76787;DHT22;65739;51.482;5.702;2023-04-24T03:34:10;9.20;99.90
76787;DHT22;65739;51.482;5.702;2023-04-24T03:36:36;9.20;99.90
76787;DHT22;65739;51.482;5.702;2023-04-24T03:39:01;9.20;99.90
76787;DHT22;65739;51.482;5.702;2023-04-24T03:41:27;9.30;99.90
76787;DHT22;65739;51.482;5.702;2023-04-24T03:43:52;9.20;99.90
76787;DHT22;65739;51.482;5.702;2023-04-24T03:46:18;9.20;99.90
76787;DHT22;65739;51.482;5.702;2023-04-24T03:48:43;9.10;99.90
76787;DHT22;65739;51.482;5.702;2023-04-24T03:51:09;9.20;99.90
76787;DHT22;65739;51.482;5.702;2023-04-24T03:53:35;9.20;99.90
76787;DHT22;65739;51.482;5.702;2023-04-24T03:56:00;9.10;99.90
76787;DHT22;65739;51.482;5.702;2023-04-24T03:58:26;9.10;99.90
76787;DHT22;65739;51.482;5.702;2023-04-24T04:00:51;9.10;99.90
76787;DHT22;65739;51.482;5.702;2023-04-24T04:03:17;9.20;99.90
76787;DHT22;65739;51.482;5.702;2023-04-24T04:05:43;9.10;99.90
76787;DHT22;65739;51.482;5.702;2023-04-24T04:08:08;9.20;99.90
76787;DHT22;65739;51.482;5.702;2023-04-24T04:10:34;9.10;99.90
76787;DHT22;65739;51.482;5.702;2023-04-24T04:12:59;9.20;99.90
76787;DHT22;65739;51.482;5.702;2023-04-24T04:15:25;9.10;99.90
76787;DHT22;65739;51.482;5.702;2023-04-24T04:17:51;9.10;99.90
76787;DHT22;65739;51.482;5.702;2023-04-24T04:20:16;9.20;99.90
76787;DHT22;65739;51.482;5.702;2023-04-24T04:22:42;9.10;99.90
76787;DHT22;65739;51.482;5.702;2023-04-24T04:25:07;9.00;99.90
76787;DHT22;65739;51.482;5.702;2023-04-24T04:27:34;9.00;99.90
76787;DHT22;65739;51.482;5.702;2023-04-24T04:30:00;8.90;99.90
76787;DHT22;65739;51.482;5.702;2023-04-24T04:32:34;8.90;99.90
76787;DHT22;65739;51.482;5.702;2023-04-24T04:35:03;8.90;99.90
76787;DHT22;65739;51.482;5.702;2023-04-24T04:37:29;8.90;99.90
76787;DHT22;65739;51.482;5.702;2023-04-24T04:39:55;8.80;99.90
76787;DHT22;65739;51.482;5.702;2023-04-24T04:42:20;8.80;99.90
76787;DHT22;65739;51.482;5.702;2023-04-24T04:44:46;8.80;99.90
76787;DHT22;65739;51.482;5.702;2023-04-24T04:47:12;8.90;99.90
76787;DHT22;65739;51.482;5.702;2023-04-24T04:49:38;8.80;99.90
76787;DHT22;65739;51.482;5.702;2023-04-24T04:52:04;8.80;99.90
76787;DHT22;65739;51.482;5.702;2023-04-24T04:54:30;8.80;99.90
76787;DHT22;65739;51.482;5.702;2023-04-24T04:56:56;8.80;99.90
76787;DHT22;65739;51.482;5.702;2023-04-24T04:59:22;8.70;99.90
76787;DHT22;65739;51.482;5.702;2023-04-24T05:01:48;8.80;99.90
76787;DHT22;65739;51.482;5.702;2023-04-24T05:04:13;8.70;99.90
76787;DHT22;65739;51.482;5.702;2023-04-24T05:06:39;8.70;99.90
76787;DHT22;65739;51.482;5.702;2023-04-24T05:09:04;8.70;99.90
76787;DHT22;65739;51.482;5.702;2023-04-24T05:11:30;8.60;99.90
76787;DHT22;65739;51.482;5.702;2023-04-24T05:13:56;8.60;99.90
76787;DHT22;65739;51.482;5.702;2023-04-24T05:16:21;8.60;99.90
76787;DHT22;65739;51.482;5.702;2023-04-24T05:18:47;8.60;99.90
76787;DHT22;65739;51.482;5.702;2023-04-24T05:21:12;8.60;99.90
76787;DHT22;65739;51.482;5.702;2023-04-24T05:23:38;8.60;99.90
76787;DHT22;65739;51.482;5.702;2023-04-24T05:26:03;8.60;99.90
76787;DHT22;65739;51.482;5.702;2023-04-24T05:28:29;8.60;99.90
76787;DHT22;65739;51.482;5.702;2023-04-24T05:30:55;8.60;99.90
76787;DHT22;65739;51.482;5.702;2023-04-24T05:33:21;8.70;99.90
76787;DHT22;65739;51.482;5.702;2023-04-24T05:35:47;8.70;99.90
76787;DHT22;65739;51.482;5.702;2023-04-24T05:38:13;8.80;99.90
76787;DHT22;65739;51.482;5.702;2023-04-24T05:40:40;8.80;99.90
76787;DHT22;65739;51.482;5.702;2023-04-24T05:43:05;8.80;99.90
76787;DHT22;65739;51.482;5.702;2023-04-24T05:45:31;8.80;99.90
76787;DHT22;65739;51.482;5.702;2023-04-24T05:47:57;8.70;99.90
76787;DHT22;65739;51.482;5.702;2023-04-24T05:50:22;8.70;99.90
76787;DHT22;65739;51.482;5.702;2023-04-24T05:52:48;8.70;99.90
76787;DHT22;65739;51.482;5.702;2023-04-24T05:55:13;8.60;99.90
76787;DHT22;65739;51.482;5.702;2023-04-24T05:57:39;8.70;99.90
76787;DHT22;65739;51.482;5.702;2023-04-24T06:00:05;8.70;99.90
76787;DHT22;65739;51.482;5.702;2023-04-24T06:02:31;8.60;99.90
76787;DHT22;65739;51.482;5.702;2023-04-24T06:04:58;8.60;99.90
76787;DHT22;65739;51.482;5.702;2023-04-24T06:07:25;8.50;99.90
76787;DHT22;65739;51.482;5.702;2023-04-24T06:09:51;8.50;99.90
76787;DHT22;65739;51.482;5.702;2023-04-24T06:12:17;8.40;99.90
76787;DHT22;65739;51.482;5.702;2023-04-24T06:14:43;8.40;99.90
76787;DHT22;65739;51.482;5.702;2023-04-24T06:17:08;8.40;99.90
76787;DHT22;65739;51.482;5.702;2023-04-24T06:19:34;8.40;99.90
76787;DHT22;65739;51.482;5.702;2023-04-24T06:22:00;8.40;99.90
76787;DHT22;65739;51.482;5.702;2023-04-24T06:24:28;8.40;99.90
76787;DHT22;65739;51.482;5.702;2023-04-24T06:26:54;8.40;99.90
76787;DHT22;65739;51.482;5.702;2023-04-24T06:29:19;8.40;99.90
76787;DHT22;65739;51.482;5.702;2023-04-24T06:31:45;8.40;99.90
76787;DHT22;65739;51.482;5.702;2023-04-24T06:34:10;8.40;99.90
76787;DHT22;65739;51.482;5.702;2023-04-24T06:36:36;8.40;99.90
76787;DHT22;65739;51.482;5.702;2023-04-24T06:39:02;8.40;99.90
76787;DHT22;65739;51.482;5.702;2023-04-24T06:41:28;8.40;99.90
76787;DHT22;65739;51.482;5.702;2023-04-24T06:43:54;8.40;99.90
76787;DHT22;65739;51.482;5.702;2023-04-24T06:46:20;8.50;99.90
76787;DHT22;65739;51.482;5.702;2023-04-24T06:48:49;8.60;99.90
76787;DHT22;65739;51.482;5.702;2023-04-24T06:51:14;8.60;99.90
76787;DHT22;65739;51.482;5.702;2023-04-24T06:53:40;8.60;99.90
76787;DHT22;65739;51.482;5.702;2023-04-24T06:56:06;8.60;99.90
76787;DHT22;65739;51.482;5.702;2023-04-24T06:58:31;8.70;99.90
76787;DHT22;65739;51.482;5.702;2023-04-24T07:00:57;8.60;99.90
76787;DHT22;65739;51.482;5.702;2023-04-24T07:03:22;8.60;99.90
76787;DHT22;65739;51.482;5.702;2023-04-24T07:05:48;8.70;99.90
76787;DHT22;65739;51.482;5.702;2023-04-24T07:08:14;8.70;99.90
76787;DHT22;65739;51.482;5.702;2023-04-24T07:10:42;8.70;99.90
76787;DHT22;65739;51.482;5.702;2023-04-24T07:13:08;8.70;99.90
76787;DHT22;65739;51.482;5.702;2023-04-24T07:15:33;8.70;99.90
76787;DHT22;65739;51.482;5.702;2023-04-24T07:18:00;8.70;99.90
76787;DHT22;65739;51.482;5.702;2023-04-24T07:20:25;8.70;99.90
76787;DHT22;65739;51.482;5.702;2023-04-24T07:22:51;8.70;99.90
76787;DHT22;65739;51.482;5.702;2023-04-24T07:25:19;8.60;99.90
76787;DHT22;65739;51.482;5.702;2023-04-24T07:27:44;8.70;99.90
76787;DHT22;65739;51.482;5.702;2023-04-24T07:30:10;8.50;99.90
76787;DHT22;65739;51.482;5.702;2023-04-24T07:32:36;8.50;99.90
76787;DHT22;65739;51.482;5.702;2023-04-24T07:35:02;8.60;99.90
76787;DHT22;65739;51.482;5.702;2023-04-24T07:37:28;8.50;99.90
76787;DHT22;65739;51.482;5.702;2023-04-24T07:39:54;8.50;99.90
76787;DHT22;65739;51.482;5.702;2023-04-24T07:42:19;8.40;99.90
76787;DHT22;65739;51.482;5.702;2023-04-24T07:44:45;8.40;99.90
76787;DHT22;65739;51.482;5.702;2023-04-24T07:47:11;8.40;99.90
76787;DHT22;65739;51.482;5.702;2023-04-24T07:49:37;8.40;99.90
76787;DHT22;65739;51.482;5.702;2023-04-24T07:52:03;8.30;99.90
76787;DHT22;65739;51.482;5.702;2023-04-24T07:54:29;8.30;99.90
76787;DHT22;65739;51.482;5.702;2023-04-24T07:56:55;8.30;99.90
76787;DHT22;65739;51.482;5.702;2023-04-24T07:59:20;8.40;99.90
76787;DHT22;65739;51.482;5.702;2023-04-24T08:01:46;8.40;99.90
76787;DHT22;65739;51.482;5.702;2023-04-24T08:04:11;8.40;99.90
76787;DHT22;65739;51.482;5.702;2023-04-24T08:06:37;8.30;99.90
76787;DHT22;65739;51.482;5.702;2023-04-24T08:09:02;8.30;99.90
76787;DHT22;65739;51.482;5.702;2023-04-24T08:11:28;8.30;99.90
76787;DHT22;65739;51.482;5.702;2023-04-24T08:13:54;8.30;99.90
76787;DHT22;65739;51.482;5.702;2023-04-24T08:16:20;8.30;99.90
76787;DHT22;65739;51.482;5.702;2023-04-24T08:18:45;8.20;99.90
76787;DHT22;65739;51.482;5.702;2023-04-24T08:21:11;8.30;99.90
76787;DHT22;65739;51.482;5.702;2023-04-24T08:23:38;8.40;99.90
76787;DHT22;65739;51.482;5.702;2023-04-24T08:26:03;8.40;99.90
76787;DHT22;65739;51.482;5.702;2023-04-24T08:28:30;8.40;99.90
76787;DHT22;65739;51.482;5.702;2023-04-24T08:30:55;8.40;99.90
76787;DHT22;65739;51.482;5.702;2023-04-24T08:33:24;8.40;99.90
76787;DHT22;65739;51.482;5.702;2023-04-24T08:35:50;8.40;99.90
76787;DHT22;65739;51.482;5.702;2023-04-24T08:38:16;8.50;99.90
76787;DHT22;65739;51.482;5.702;2023-04-24T08:40:42;8.60;99.90
76787;DHT22;65739;51.482;5.702;2023-04-24T08:43:09;8.50;99.90
76787;DHT22;65739;51.482;5.702;2023-04-24T08:45:35;8.50;99.90
76787;DHT22;65739;51.482;5.702;2023-04-24T08:48:02;8.50;99.90
76787;DHT22;65739;51.482;5.702;2023-04-24T08:50:29;8.50;99.90
76787;DHT22;65739;51.482;5.702;2023-04-24T08:52:55;8.50;99.90
76787;DHT22;65739;51.482;5.702;2023-04-24T08:55:24;8.60;99.90
76787;DHT22;65739;51.482;5.702;2023-04-24T08:57:51;8.60;99.90
76787;DHT22;65739;51.482;5.702;2023-04-24T09:00:19;8.70;99.90
76787;DHT22;65739;51.482;5.702;2023-04-24T09:02:47;8.70;99.90
76787;DHT22;65739;51.482;5.702;2023-04-24T09:05:14;8.70;99.90
76787;DHT22;65739;51.482;5.702;2023-04-24T09:07:44;8.70;99.90
76787;DHT22;65739;51.482;5.702;2023-04-24T09:10:11;8.70;99.90
76787;DHT22;65739;51.482;5.702;2023-04-24T09:12:37;8.70;99.90
76787;DHT22;65739;51.482;5.702;2023-04-24T09:15:03;8.70;99.90
76787;DHT22;65739;51.482;5.702;2023-04-24T09:17:30;8.80;99.90
76787;DHT22;65739;51.482;5.702;2023-04-24T09:19:56;9.00;99.90
76787;DHT22;65739;51.482;5.702;2023-04-24T09:22:22;9.20;99.90
76787;DHT22;65739;51.482;5.702;2023-04-24T09:24:47;9.20;99.90
76787;DHT22;65739;51.482;5.702;2023-04-24T09:27:13;9.10;99.90
76787;DHT22;65739;51.482;5.702;2023-04-24T09:29:53;9.10;99.90
76787;DHT22;65739;51.482;5.702;2023-04-24T09:32:21;8.90;99.90
76787;DHT22;65739;51.482;5.702;2023-04-24T09:34:47;8.90;99.90
76787;DHT22;65739;51.482;5.702;2023-04-24T09:37:27;8.80;99.90
76787;DHT22;65739;51.482;5.702;2023-04-24T09:40:10;8.80;99.90
76787;DHT22;65739;51.482;5.702;2023-04-24T09:42:40;8.80;99.90
76787;DHT22;65739;51.482;5.702;2023-04-24T09:45:09;8.90;99.90
76787;DHT22;65739;51.482;5.702;2023-04-24T09:47:37;9.00;99.90
76787;DHT22;65739;51.482;5.702;2023-04-24T09:50:11;9.20;99.90
76787;DHT22;65739;51.482;5.702;2023-04-24T09:52:40;9.50;99.90
76787;DHT22;65739;51.482;5.702;2023-04-24T09:55:20;9.60;99.90
76787;DHT22;65739;51.482;5.702;2023-04-24T09:57:53;9.50;99.90
76787;DHT22;65739;51.482;5.702;2023-04-24T10:00:38;9.10;99.90
76787;DHT22;65739;51.482;5.702;2023-04-24T10:03:05;9.00;99.90
76787;DHT22;65739;51.482;5.702;2023-04-24T10:05:35;8.90;99.90
76787;DHT22;65739;51.482;5.702;2023-04-24T10:08:06;8.90;99.90
76787;DHT22;65739;51.482;5.702;2023-04-24T10:10:37;9.00;99.90
76787;DHT22;65739;51.482;5.702;2023-04-24T10:13:04;8.90;99.90
76787;DHT22;65739;51.482;5.702;2023-04-24T10:15:30;9.00;99.90
76787;DHT22;65739;51.482;5.702;2023-04-24T10:17:58;9.20;99.90
76787;DHT22;65739;51.482;5.702;2023-04-24T10:20:25;9.40;99.90
76787;DHT22;65739;51.482;5.702;2023-04-24T10:22:52;9.50;99.90
76787;DHT22;65739;51.482;5.702;2023-04-24T10:25:20;9.60;99.90
76787;DHT22;65739;51.482;5.702;2023-04-24T10:27:46;9.90;99.90
76787;DHT22;65739;51.482;5.702;2023-04-24T10:30:13;10.10;99.90
76787;DHT22;65739;51.482;5.702;2023-04-24T10:32:39;10.20;99.90
76787;DHT22;65739;51.482;5.702;2023-04-24T10:35:07;10.40;99.90
76787;DHT22;65739;51.482;5.702;2023-04-24T10:37:45;10.40;99.90
76787;DHT22;65739;51.482;5.702;2023-04-24T10:40:16;10.40;99.90
76787;DHT22;65739;51.482;5.702;2023-04-24T10:42:42;10.20;99.90
76787;DHT22;65739;51.482;5.702;2023-04-24T10:45:19;10.00;99.90
76787;DHT22;65739;51.482;5.702;2023-04-24T10:48:06;9.80;99.90
76787;DHT22;65739;51.482;5.702;2023-04-24T10:53:17;9.60;99.90
76787;DHT22;65739;51.482;5.702;2023-04-24T10:55:46;9.50;99.90
76787;DHT22;65739;51.482;5.702;2023-04-24T10:58:12;9.50;99.90
76787;DHT22;65739;51.482;5.702;2023-04-24T11:00:39;9.60;99.90
76787;DHT22;65739;51.482;5.702;2023-04-24T11:03:07;9.80;99.90
76787;DHT22;65739;51.482;5.702;2023-04-24T11:05:50;10.20;99.90
76787;DHT22;65739;51.482;5.702;2023-04-24T11:08:25;10.20;99.90
76787;DHT22;65739;51.482;5.702;2023-04-24T11:10:56;10.20;99.90
76787;DHT22;65739;51.482;5.702;2023-04-24T11:13:24;10.20;99.90
76787;DHT22;65739;51.482;5.702;2023-04-24T11:16:28;10.20;99.90
76787;DHT22;65739;51.482;5.702;2023-04-24T11:19:06;10.10;99.90
76787;DHT22;65739;51.482;5.702;2023-04-24T11:21:46;10.20;99.90
76787;DHT22;65739;51.482;5.702;2023-04-24T11:27:17;10.40;99.90
76787;DHT22;65739;51.482;5.702;2023-04-24T11:32:35;10.30;99.90
76787;DHT22;65739;51.482;5.702;2023-04-24T11:37:49;10.10;99.90
76787;DHT22;65739;51.482;5.702;2023-04-24T11:40:16;9.90;99.90
76787;DHT22;65739;51.482;5.702;2023-04-24T11:42:46;9.60;99.90
76787;DHT22;65739;51.482;5.702;2023-04-24T11:45:22;9.40;99.90
76787;DHT22;65739;51.482;5.702;2023-04-24T11:47:48;9.30;99.90
76787;DHT22;65739;51.482;5.702;2023-04-24T11:50:15;9.00;99.90
76787;DHT22;65739;51.482;5.702;2023-04-24T11:52:43;9.00;99.90
76787;DHT22;65739;51.482;5.702;2023-04-24T11:57:53;9.10;99.90
76787;DHT22;65739;51.482;5.702;2023-04-24T12:00:26;9.20;99.90
76787;DHT22;65739;51.482;5.702;2023-04-24T12:03:07;9.40;99.90
76787;DHT22;65739;51.482;5.702;2023-04-24T12:05:33;9.60;99.90
76787;DHT22;65739;51.482;5.702;2023-04-24T12:07:59;10.10;99.90
76787;DHT22;65739;51.482;5.702;2023-04-24T12:10:27;10.30;99.90
76787;DHT22;65739;51.482;5.702;2023-04-24T12:12:55;10.30;99.90
76787;DHT22;65739;51.482;5.702;2023-04-24T12:15:21;10.20;99.90
76787;DHT22;65739;51.482;5.702;2023-04-24T12:17:49;10.10;99.90
76787;DHT22;65739;51.482;5.702;2023-04-24T12:20:15;10.10;99.90
76787;DHT22;65739;51.482;5.702;2023-04-24T12:22:49;10.20;99.90
76787;DHT22;65739;51.482;5.702;2023-04-24T12:25:16;10.10;99.90
76787;DHT22;65739;51.482;5.702;2023-04-24T12:27:42;9.90;99.90
76787;DHT22;65739;51.482;5.702;2023-04-24T12:30:12;9.90;99.90
76787;DHT22;65739;51.482;5.702;2023-04-24T12:32:47;9.80;99.90
76787;DHT22;65739;51.482;5.702;2023-04-24T12:35:13;10.00;99.90
76787;DHT22;65739;51.482;5.702;2023-04-24T12:37:42;10.20;99.90
76787;DHT22;65739;51.482;5.702;2023-04-24T12:40:10;10.50;99.90
76787;DHT22;65739;51.482;5.702;2023-04-24T12:42:42;10.90;99.90
76787;DHT22;65739;51.482;5.702;2023-04-24T12:45:08;10.90;99.90
76787;DHT22;65739;51.482;5.702;2023-04-24T12:47:34;10.80;99.90
76787;DHT22;65739;51.482;5.702;2023-04-24T12:50:02;10.70;99.90
76787;DHT22;65739;51.482;5.702;2023-04-24T12:52:28;10.70;99.90
76787;DHT22;65739;51.482;5.702;2023-04-24T12:54:56;11.00;99.90
76787;DHT22;65739;51.482;5.702;2023-04-24T12:57:22;11.20;99.90
76787;DHT22;65739;51.482;5.702;2023-04-24T12:59:48;11.30;99.90
76787;DHT22;65739;51.482;5.702;2023-04-24T13:02:14;11.40;99.90
76787;DHT22;65739;51.482;5.702;2023-04-24T13:04:46;11.50;99.90
76787;DHT22;65739;51.482;5.702;2023-04-24T13:07:12;11.40;99.90
76787;DHT22;65739;51.482;5.702;2023-04-24T13:09:39;11.30;99.90
76787;DHT22;65739;51.482;5.702;2023-04-24T13:12:05;11.40;99.90
76787;DHT22;65739;51.482;5.702;2023-04-24T13:14:31;11.70;99.90
76787;DHT22;65739;51.482;5.702;2023-04-24T13:16:56;11.70;99.90
76787;DHT22;65739;51.482;5.702;2023-04-24T13:19:24;11.60;99.90
76787;DHT22;65739;51.482;5.702;2023-04-24T13:21:51;11.30;99.90
76787;DHT22;65739;51.482;5.702;2023-04-24T13:24:16;11.20;99.90
76787;DHT22;65739;51.482;5.702;2023-04-24T13:26:42;10.90;99.90
76787;DHT22;65739;51.482;5.702;2023-04-24T13:29:08;10.80;99.90
76787;DHT22;65739;51.482;5.702;2023-04-24T13:31:34;10.70;99.90
76787;DHT22;65739;51.482;5.702;2023-04-24T13:33:59;10.70;99.90
76787;DHT22;65739;51.482;5.702;2023-04-24T13:36:25;10.50;99.90
76787;DHT22;65739;51.482;5.702;2023-04-24T13:38:51;10.40;99.90
76787;DHT22;65739;51.482;5.702;2023-04-24T13:41:16;10.40;99.90
76787;DHT22;65739;51.482;5.702;2023-04-24T13:43:42;10.60;99.90
76787;DHT22;65739;51.482;5.702;2023-04-24T13:46:08;10.60;99.90
76787;DHT22;65739;51.482;5.702;2023-04-24T13:48:34;10.90;99.90
76787;DHT22;65739;51.482;5.702;2023-04-24T13:51:00;10.80;99.90
76787;DHT22;65739;51.482;5.702;2023-04-24T13:53:25;10.60;99.90
76787;DHT22;65739;51.482;5.702;2023-04-24T13:55:51;10.30;99.90
76787;DHT22;65739;51.482;5.702;2023-04-24T13:58:17;9.90;99.90
76787;DHT22;65739;51.482;5.702;2023-04-24T14:00:42;9.80;99.90
76787;DHT22;65739;51.482;5.702;2023-04-24T14:03:08;10.00;99.90
76787;DHT22;65739;51.482;5.702;2023-04-24T14:05:33;10.20;99.90
76787;DHT22;65739;51.482;5.702;2023-04-24T14:07:59;10.50;99.90
76787;DHT22;65739;51.482;5.702;2023-04-24T14:10:25;11.00;99.90
76787;DHT22;65739;51.482;5.702;2023-04-24T14:12:52;11.40;99.90
76787;DHT22;65739;51.482;5.702;2023-04-24T14:15:18;11.60;99.90
76787;DHT22;65739;51.482;5.702;2023-04-24T14:17:44;11.80;99.90
76787;DHT22;65739;51.482;5.702;2023-04-24T14:20:10;11.50;99.90
76787;DHT22;65739;51.482;5.702;2023-04-24T14:22:35;11.60;99.90
76787;DHT22;65739;51.482;5.702;2023-04-24T14:25:01;11.70;99.90
76787;DHT22;65739;51.482;5.702;2023-04-24T14:27:27;11.70;99.90
76787;DHT22;65739;51.482;5.702;2023-04-24T14:29:52;11.40;99.90
76787;DHT22;65739;51.482;5.702;2023-04-24T14:32:18;11.20;99.90
76787;DHT22;65739;51.482;5.702;2023-04-24T14:34:43;11.30;99.90
76787;DHT22;65739;51.482;5.702;2023-04-24T14:37:09;10.90;99.90
76787;DHT22;65739;51.482;5.702;2023-04-24T14:39:34;10.70;99.90
76787;DHT22;65739;51.482;5.702;2023-04-24T14:42:00;10.20;99.90
76787;DHT22;65739;51.482;5.702;2023-04-24T14:44:26;10.00;99.90
76787;DHT22;65739;51.482;5.702;2023-04-24T14:46:52;9.90;99.90
76787;DHT22;65739;51.482;5.702;2023-04-24T14:49:18;10.00;99.90
76787;DHT22;65739;51.482;5.702;2023-04-24T14:51:44;10.10;99.90
76787;DHT22;65739;51.482;5.702;2023-04-24T14:54:09;10.30;99.90
76787;DHT22;65739;51.482;5.702;2023-04-24T14:56:35;10.30;99.90
76787;DHT22;65739;51.482;5.702;2023-04-24T14:59:01;10.50;99.90
76787;DHT22;65739;51.482;5.702;2023-04-24T15:01:27;10.60;99.90
76787;DHT22;65739;51.482;5.702;2023-04-24T15:03:52;10.90;99.90
76787;DHT22;65739;51.482;5.702;2023-04-24T15:06:18;11.50;99.90
76787;DHT22;65739;51.482;5.702;2023-04-24T15:08:44;12.10;99.90
76787;DHT22;65739;51.482;5.702;2023-04-24T15:11:10;11.80;99.90
76787;DHT22;65739;51.482;5.702;2023-04-24T15:13:36;11.70;99.90
76787;DHT22;65739;51.482;5.702;2023-04-24T15:16:01;12.10;99.90
76787;DHT22;65739;51.482;5.702;2023-04-24T15:18:27;12.40;99.90
76787;DHT22;65739;51.482;5.702;2023-04-24T15:20:54;13.00;99.90
76787;DHT22;65739;51.482;5.702;2023-04-24T15:23:20;13.10;99.90
76787;DHT22;65739;51.482;5.702;2023-04-24T15:25:46;13.40;99.90
76787;DHT22;65739;51.482;5.702;2023-04-24T15:28:11;13.90;99.90
76787;DHT22;65739;51.482;5.702;2023-04-24T15:30:37;13.70;99.90
76787;DHT22;65739;51.482;5.702;2023-04-24T15:33:02;13.90;99.90
76787;DHT22;65739;51.482;5.702;2023-04-24T15:35:28;14.00;99.90
76787;DHT22;65739;51.482;5.702;2023-04-24T15:37:54;14.10;99.90
76787;DHT22;65739;51.482;5.702;2023-04-24T15:40:20;13.90;99.90
76787;DHT22;65739;51.482;5.702;2023-04-24T15:42:45;13.40;99.90
76787;DHT22;65739;51.482;5.702;2023-04-24T15:45:11;13.20;99.90
76787;DHT22;65739;51.482;5.702;2023-04-24T15:47:38;13.60;99.90
76787;DHT22;65739;51.482;5.702;2023-04-24T15:50:04;12.70;99.90
76787;DHT22;65739;51.482;5.702;2023-04-24T15:52:29;12.00;99.90
76787;DHT22;65739;51.482;5.702;2023-04-24T15:54:55;12.00;99.90